Crosby, Washington
Current Conditions -  °F | °C
As of 6:35 AM on Saturday 25 Oct 2014 (Local Time) from KPWT Reporting Station
Overcast Overcast  
Wind Chill: 46°   Ceiling: 11000
Heat Index: 46°   Visibility: 10mi
Dew Point: 46°   Wind: 3mph
Humidity: 100%   Direction: 340°NNW
Pressure: 29.5"   Gusts: NA
Location:  47.5964°N, 122.62°W
Report Text: KPWT 251335Z AUTO 34003KT 10SM OVC110 08/08 A2950 RMK AO1
Loading
Personal Weather Stations






























Interactive Weather Map New forecast layout! Learn more

10-Day Weather Forecast

Advertisements
Track Severe Weather on mobile